Time;durP1;ratioP1;P1;durP2;ratioP2;P2;SDS_P1;SDS_P2;PMS_P1;PMS_P2;Temp;Humidity;BMP_temperature;BMP_pressure;BME280_temperature;BME280_humidity;BME280_pressure;Samples;Min_cycle;Max_cycle;Signal;HPM_P1;HPM_P2
2023/12/19 00:01:19;;;;;;;31.80;16.13;;;;;;;7.52;100.00;101303.81;5044100;28;20043;-76
2023/12/19 00:03:44;;;;;;;35.60;17.20;;;;;;;7.61;100.00;101316.31;5041841;28;20048;-76
2023/12/19 00:06:10;;;;;;;31.17;16.50;;;;;;;7.50;100.00;101303.91;5028637;28;20127;-76
2023/12/19 00:08:36;;;;;;;39.43;18.10;;;;;;;7.57;100.00;101302.44;5045588;28;20079;-76
2023/12/19 00:11:01;;;;;;;33.42;16.20;;;;;;;7.57;100.00;101304.25;5044924;28;20279;-76
2023/12/19 00:13:27;;;;;;;38.00;17.40;;;;;;;7.50;100.00;101295.94;5051581;28;20033;-76
2023/12/19 00:15:52;;;;;;;33.37;16.00;;;;;;;7.60;100.00;101303.97;5016893;28;20132;-76
2023/12/19 00:18:17;;;;;;;41.07;18.90;;;;;;;7.65;100.00;101293.81;5045113;28;20063;-76
2023/12/19 00:20:43;;;;;;;32.63;16.83;;;;;;;7.58;100.00;101282.84;5045100;28;20275;-77
2023/12/19 00:23:08;;;;;;;40.57;18.33;;;;;;;7.62;100.00;101283.44;5051530;28;20586;-76
2023/12/19 00:25:33;;;;;;;42.50;18.90;;;;;;;7.70;100.00;101274.81;5033579;28;20060;-76
2023/12/19 00:27:59;;;;;;;41.70;18.27;;;;;;;7.66;100.00;101286.69;5044618;28;20044;-76
2023/12/19 00:30:26;;;;;;;40.13;18.02;;;;;;;7.66;100.00;101281.38;5035367;28;20026;-76
2023/12/19 00:32:51;;;;;;;38.92;19.50;;;;;;;7.66;100.00;101273.41;5041188;28;20033;-75
2023/12/19 00:35:17;;;;;;;35.73;18.20;;;;;;;7.69;100.00;101278.44;5044775;28;20085;-76
2023/12/19 00:37:42;;;;;;;37.57;15.73;;;;;;;7.59;100.00;101279.22;5032477;28;20492;-76
2023/12/19 00:40:10;;;;;;;40.00;17.87;;;;;;;7.69;100.00;101279.28;5031637;28;20312;-76
2023/12/19 00:42:36;;;;;;;40.13;17.77;;;;;;;7.73;100.00;101278.06;5046602;28;20037;-76
2023/12/19 00:45:01;;;;;;;38.10;17.40;;;;;;;7.85;100.00;101276.16;5028345;28;20033;-76
2023/12/19 00:47:27;;;;;;;38.53;18.92;;;;;;;7.86;100.00;101275.19;5015169;28;20499;-75
2023/12/19 00:49:52;;;;;;;42.47;20.37;;;;;;;7.83;100.00;101264.81;5047716;28;20121;-75
2023/12/19 00:52:18;;;;;;;40.43;19.47;;;;;;;7.80;100.00;101275.72;5059649;28;20025;-75
2023/12/19 00:54:43;;;;;;;43.37;18.10;;;;;;;7.65;100.00;101261.06;5041810;28;20207;-75
2023/12/19 00:57:08;;;;;;;36.77;17.90;;;;;;;7.65;100.00;101266.38;5047469;28;20123;-75
2023/12/19 00:59:34;;;;;;;38.80;18.93;;;;;;;7.73;100.00;101275.41;5032212;28;20075;-75
2023/12/19 01:01:59;;;;;;;37.07;17.93;;;;;;;7.72;100.00;101273.69;5042195;28;20064;-76
2023/12/19 01:04:25;;;;;;;37.00;17.15;;;;;;;7.74;100.00;101260.28;5048874;28;20031;-76
2023/12/19 01:06:50;;;;;;;36.50;17.40;;;;;;;7.74;100.00;101274.41;5048847;28;20166;-75
2023/12/19 01:09:15;;;;;;;35.73;17.03;;;;;;;7.70;100.00;101264.19;5032081;28;20298;-76
2023/12/19 01:11:41;;;;;;;40.23;17.60;;;;;;;7.76;100.00;101258.34;5041985;28;20040;-76
2023/12/19 01:14:06;;;;;;;40.30;18.67;;;;;;;7.76;100.00;101261.00;5047571;22;20117;-78
2023/12/19 01:16:32;;;;;;;32.05;17.92;;;;;;;7.83;100.00;101270.97;5073266;28;20535;-79
2023/12/19 01:18:57;;;;;;;37.80;16.77;;;;;;;7.75;100.00;101261.97;5088309;28;20042;-79
2023/12/19 01:21:22;;;;;;;40.60;17.40;;;;;;;7.80;100.00;101260.63;5086809;28;20024;-78
2023/12/19 01:23:48;;;;;;;38.03;17.00;;;;;;;7.69;100.00;101251.88;5083726;28;20382;-79
2023/12/19 01:26:13;;;;;;;37.63;17.03;;;;;;;7.81;100.00;101264.09;5070760;28;20044;-79
2023/12/19 01:28:39;;;;;;;34.20;17.27;;;;;;;7.64;100.00;101264.72;5088209;28;20036;-78
2023/12/19 01:31:05;;;;;;;37.95;16.75;;;;;;;7.75;100.00;101270.81;5088054;28;20132;-79
2023/12/19 01:33:30;;;;;;;42.47;18.52;;;;;;;7.76;100.00;101271.63;5065131;28;20106;-79
2023/12/19 01:35:55;;;;;;;36.10;17.07;;;;;;;7.73;100.00;101258.63;5062491;28;20581;-79
2023/12/19 01:38:21;;;;;;;39.33;17.03;;;;;;;7.86;100.00;101269.03;5063793;28;20034;-79
2023/12/19 01:40:46;;;;;;;39.60;18.20;;;;;;;7.86;100.00;101258.41;5088044;28;20050;-78
2023/12/19 01:43:20;;;;;;;40.27;17.33;;;;;;;7.90;100.00;101257.16;5082368;28;20028;-78
2023/12/19 01:45:45;;;;;;;31.25;15.05;;;;;;;7.85;100.00;101246.94;5088116;28;20036;-78
2023/12/19 01:48:13;;;;;;;37.67;16.38;;;;;;;7.95;100.00;101236.31;5088391;28;20028;-79
2023/12/19 01:50:38;;;;;;;34.75;16.30;;;;;;;7.90;100.00;101244.69;5088348;28;20406;-78
2023/12/19 01:53:04;;;;;;;32.75;14.68;;;;;;;7.92;100.00;101232.13;5058979;28;20033;-80
2023/12/19 01:55:30;;;;;;;33.10;15.35;;;;;;;7.82;100.00;101232.09;5056571;28;20624;-79
2023/12/19 01:57:56;;;;;;;35.42;17.42;;;;;;;7.81;100.00;101233.03;5056009;28;20036;-80
2023/12/19 02:00:22;;;;;;;36.05;15.80;;;;;;;7.87;100.00;101233.50;5078033;28;20033;-79
2023/12/19 02:02:52;;;;;;;34.63;15.18;;;;;;;7.82;100.00;101215.31;5065865;28;20032;-79
2023/12/19 02:05:18;;;;;;;34.38;15.43;;;;;;;7.95;100.00;101237.16;5065026;28;20043;-79
2023/12/19 02:07:44;;;;;;;31.35;14.82;;;;;;;7.81;100.00;101230.38;5072738;28;20020;-79
2023/12/19 02:10:10;;;;;;;37.35;16.38;;;;;;;7.77;100.00;101220.16;5071876;28;20123;-80
2023/12/19 02:12:36;;;;;;;34.40;15.15;;;;;;;7.89;100.00;101221.75;5066610;28;20062;-80
2023/12/19 02:15:02;;;;;;;38.20;15.85;;;;;;;7.86;100.00;101235.31;5066403;28;20036;-79
2023/12/19 02:17:28;;;;;;;33.88;14.57;;;;;;;7.82;100.00;101225.94;5090123;28;20026;-79
2023/12/19 02:19:53;;;;;;;38.53;17.27;;;;;;;7.88;100.00;101230.69;5072461;28;20087;-79
2023/12/19 02:22:18;;;;;;;31.80;14.73;;;;;;;7.93;100.00;101228.47;5072095;28;20723;-80
2023/12/19 02:24:44;;;;;;;34.67;15.00;;;;;;;7.80;100.00;101231.38;5083457;28;20595;-79
2023/12/19 02:27:11;;;;;;;28.75;13.15;;;;;;;7.82;100.00;101229.44;5082305;28;20028;-80
2023/12/19 02:29:37;;;;;;;33.38;14.07;;;;;;;7.95;100.00;101236.31;5063497;28;20504;-79
2023/12/19 02:32:03;;;;;;;30.85;12.77;;;;;;;7.71;100.00;101228.66;5080479;28;20107;-79
2023/12/19 02:34:29;;;;;;;30.30;13.88;;;;;;;7.84;100.00;101223.97;5071705;28;20107;-80
2023/12/19 02:36:55;;;;;;;25.85;11.75;;;;;;;7.70;100.00;101219.00;5072133;28;20043;-80
2023/12/19 02:39:21;;;;;;;29.52;13.10;;;;;;;7.72;100.00;101204.59;5073675;28;20036;-80
2023/12/19 02:41:46;;;;;;;24.27;11.40;;;;;;;7.73;100.00;101216.94;5085239;28;20031;-80
2023/12/19 02:44:11;;;;;;;22.50;12.07;;;;;;;7.63;100.00;101209.88;5061388;28;20037;-81
2023/12/19 02:46:37;;;;;;;25.80;11.83;;;;;;;7.73;100.00;101216.09;5081800;28;20054;-79
2023/12/19 02:49:02;;;;;;;24.57;10.83;;;;;;;7.53;100.00;101193.88;5095552;28;20040;-79
2023/12/19 02:51:29;;;;;;;23.27;11.38;;;;;;;7.52;100.00;101197.53;5066981;28;20107;-80
2023/12/19 02:53:57;;;;;;;26.35;11.57;;;;;;;7.58;100.00;101192.50;5066291;28;20466;-79
2023/12/19 02:56:23;;;;;;;24.15;11.38;;;;;;;7.68;100.00;101195.22;5070403;28;20024;-79
2023/12/19 02:58:49;;;;;;;29.55;13.07;;;;;;;7.62;100.00;101190.44;5073011;28;20472;-80
2023/12/19 03:01:14;;;;;;;21.45;10.93;;;;;;;7.65;100.00;101200.78;5087477;28;20120;-79
2023/12/19 03:03:40;;;;;;;24.02;10.43;;;;;;;7.53;100.00;101199.19;5063444;28;20426;-79
2023/12/19 03:06:06;;;;;;;;;;;;;;;7.55;100.00;101187.47;5080925;28;20063;-79
2023/12/19 03:08:31;;;;;;;21.85;9.75;;;;;;;7.57;100.00;101188.16;5078411;28;19951;-80
2023/12/19 03:10:58;;;;;;;25.60;12.23;;;;;;;7.52;100.00;101185.06;5060137;28;20111;-80
2023/12/19 03:13:23;;;;;;;20.65;10.95;;;;;;;7.63;100.00;101196.59;5071483;28;20331;-79
2023/12/19 03:15:49;;;;;;;21.70;10.97;;;;;;;7.57;100.00;101200.63;5070229;28;20046;-79
2023/12/19 03:18:14;;;;;;;21.00;10.33;;;;;;;7.64;100.00;101191.16;5058609;28;20688;-80
2023/12/19 03:20:40;;;;;;;21.37;10.67;;;;;;;7.67;100.00;101188.22;5046986;28;20036;-79
2023/12/19 03:23:06;;;;;;;;;;;;;;;7.47;100.00;101168.69;5078638;28;20540;-79
2023/12/19 03:25:31;;;;;;;23.38;10.88;;;;;;;7.41;100.00;101179.84;5078515;28;19916;-79
2023/12/19 03:27:56;;;;;;;26.00;12.33;;;;;;;7.49;100.00;101190.66;5087606;28;20036;-77
2023/12/19 03:30:22;;;;;;;20.77;10.33;;;;;;;7.52;100.00;101187.72;5063528;28;20032;-79
2023/12/19 03:32:47;;;;;;;21.53;11.63;;;;;;;7.49;100.00;101180.03;5055316;28;20024;-79
2023/12/19 03:35:12;;;;;;;26.27;10.73;;;;;;;7.39;100.00;101173.81;5059966;28;20038;-79
2023/12/19 03:37:38;;;;;;;23.43;10.87;;;;;;;7.39;100.00;101182.59;5070349;28;20028;-80
2023/12/19 03:40:05;;;;;;;17.63;10.10;;;;;;;7.44;100.00;101182.22;5069353;28;20135;-80
2023/12/19 03:42:30;;;;;;;21.45;10.55;;;;;;;7.50;100.00;101168.41;5070799;28;20103;-80
2023/12/19 03:44:55;;;;;;;20.90;10.17;;;;;;;7.41;100.00;101158.59;5069580;28;20303;-79
2023/12/19 03:47:21;;;;;;;22.50;11.23;;;;;;;7.44;100.00;101165.44;5069718;28;20024;-79
2023/12/19 03:49:46;;;;;;;21.37;10.73;;;;;;;7.43;100.00;101183.19;5057734;28;20041;-79
2023/12/19 03:52:11;;;;;;;20.50;9.90;;;;;;;7.41;100.00;101177.19;5091601;28;20151;-81
2023/12/19 03:54:37;;;;;;;24.80;11.10;;;;;;;7.32;100.00;101180.63;5073677;28;20095;-79
2023/12/19 03:57:02;;;;;;;19.23;9.90;;;;;;;7.32;100.00;101170.00;5056662;28;20032;-80
2023/12/19 03:59:27;;;;;;;24.33;10.93;;;;;;;7.44;100.00;101162.78;5069059;28;20031;-79
2023/12/19 04:01:53;;;;;;;24.37;11.37;;;;;;;7.34;100.00;101163.56;5081129;28;20028;-79
2023/12/19 04:04:18;;;;;;;20.07;10.53;;;;;;;7.44;100.00;101168.09;5067316;28;20043;-79
2023/12/19 04:06:44;;;;;;;24.80;12.27;;;;;;;7.30;100.00;101142.72;5063199;28;20388;-78
2023/12/19 04:09:10;;;;;;;23.23;11.57;;;;;;;7.34;100.00;101155.59;5067186;28;20031;-79
2023/12/19 04:11:36;;;;;;;25.05;11.70;;;;;;;7.32;100.00;101143.44;5085399;28;20032;-79
2023/12/19 04:14:02;;;;;;;23.33;11.75;;;;;;;7.15;100.00;101127.13;5066808;28;20031;-79
2023/12/19 04:16:28;;;;;;;18.00;9.65;;;;;;;7.32;100.00;101127.50;5081379;28;20024;-80
2023/12/19 04:18:53;;;;;;;19.10;11.13;;;;;;;7.21;100.00;101147.03;5068122;28;20032;-79
2023/12/19 04:21:18;;;;;;;18.88;10.38;;;;;;;7.30;100.00;101140.06;5067697;28;20040;-79
2023/12/19 04:23:44;;;;;;;18.87;10.50;;;;;;;7.36;100.00;101150.16;5061615;28;20051;-79
2023/12/19 04:26:16;;;;;;;20.77;10.63;;;;;;;7.44;100.00;101157.47;5082572;28;20039;-78
2023/12/19 04:28:42;;;;;;;19.92;10.30;;;;;;;7.24;100.00;101154.72;5076615;28;20027;-78
2023/12/19 04:31:07;;;;;;;;;;;;;;;7.39;100.00;101161.34;5084682;28;20051;-79
2023/12/19 04:33:33;;;;;;;22.00;10.95;;;;;;;7.08;100.00;101133.94;5067874;28;19962;-79
2023/12/19 04:36:00;;;;;;;21.37;10.63;;;;;;;7.07;100.00;101139.34;5059996;28;20085;-79
2023/12/19 04:38:25;;;;;;;21.20;11.45;;;;;;;7.02;100.00;101161.00;5058312;28;20510;-78
2023/12/19 04:40:50;;;;;;;23.20;11.17;;;;;;;7.08;100.00;101155.16;5074701;28;20036;-79
2023/12/19 04:43:16;;;;;;;19.60;10.77;;;;;;;6.95;100.00;101135.94;5064911;28;20542;-79
2023/12/19 04:45:41;;;;;;;20.97;11.67;;;;;;;7.02;100.00;101139.75;5084535;28;20077;-79
2023/12/19 04:48:06;;;;;;;22.00;10.63;;;;;;;7.06;100.00;101149.16;5067647;28;20982;-79
2023/12/19 04:50:32;;;;;;;21.15;10.60;;;;;;;7.00;100.00;101138.19;5084383;28;20039;-79
2023/12/19 04:52:57;;;;;;;22.00;9.73;;;;;;;7.02;100.00;101131.78;5084510;28;20036;-79
2023/12/19 04:55:23;;;;;;;21.10;11.00;;;;;;;7.01;100.00;101134.59;5067446;28;20035;-79
2023/12/19 04:57:48;;;;;;;21.70;10.80;;;;;;;7.00;100.00;101122.28;5084581;28;20104;-79
2023/12/19 05:00:14;;;;;;;22.83;10.30;;;;;;;6.99;100.00;101126.75;5066203;28;20533;-79
2023/12/19 05:02:39;;;;;;;19.23;9.52;;;;;;;6.95;100.00;101118.22;5067303;28;20403;-79
2023/12/19 05:05:05;;;;;;;19.00;9.65;;;;;;;7.01;100.00;101130.13;5066158;28;20036;-78
2023/12/19 05:07:32;;;;;;;17.35;8.63;;;;;;;7.10;100.00;101129.34;5084810;28;20026;-79
2023/12/19 05:09:57;;;;;;;20.15;9.98;;;;;;;7.08;100.00;101136.59;5076828;28;20036;-79
2023/12/19 05:12:24;;;;;;;25.90;11.57;;;;;;;7.06;100.00;101125.25;5066947;28;20020;-79
2023/12/19 05:14:49;;;;;;;20.20;10.13;;;;;;;7.11;100.00;101119.56;5075969;28;20035;-78
2023/12/19 05:17:14;;;;;;;17.73;9.82;;;;;;;6.98;100.00;101117.13;5084260;28;20405;-78
2023/12/19 05:19:40;;;;;;;20.03;11.13;;;;;;;7.03;100.00;101106.09;5084464;28;20093;-80
2023/12/19 05:22:05;;;;;;;17.93;10.00;;;;;;;7.03;100.00;101122.88;5067451;28;20043;-80
2023/12/19 05:24:32;;;;;;;21.03;10.60;;;;;;;7.05;100.00;101114.78;5084295;28;20463;-79
2023/12/19 05:26:59;;;;;;;22.70;10.65;;;;;;;7.01;100.00;101118.66;5084475;28;20056;-80
2023/12/19 05:29:25;;;;;;;24.35;11.27;;;;;;;7.01;100.00;101114.19;5064336;28;20115;-79
2023/12/19 05:31:50;;;;;;;21.15;12.52;;;;;;;7.00;100.00;101120.47;5062373;28;20031;-80
2023/12/19 05:34:16;;;;;;;22.17;11.17;;;;;;;7.01;100.00;101114.19;5048178;28;20024;-80
2023/12/19 05:36:46;;;;;;;21.13;10.97;;;;;;;7.04;100.00;101113.91;5071919;28;20698;-79
2023/12/19 05:39:12;;;;;;;21.00;10.93;;;;;;;6.99;100.00;101097.53;5088123;28;20038;-79
2023/12/19 05:41:37;;;;;;;22.35;12.38;;;;;;;7.01;100.00;101092.94;5071369;28;20036;-79
2023/12/19 05:44:03;;;;;;;24.73;12.77;;;;;;;7.00;100.00;101085.97;5087610;28;20105;-79
2023/12/19 05:46:28;;;;;;;27.65;12.90;;;;;;;7.09;100.00;101109.06;5087839;28;20285;-80
2023/12/19 05:48:54;;;;;;;23.73;12.57;;;;;;;7.11;100.00;101074.41;5071129;28;20465;-79
2023/12/19 05:51:19;;;;;;;28.40;12.90;;;;;;;7.05;100.00;101090.88;5087579;28;20713;-80
2023/12/19 05:53:44;;;;;;;25.87;12.37;;;;;;;7.28;100.00;101095.06;5076194;28;20029;-79
2023/12/19 05:56:13;;;;;;;23.87;12.07;;;;;;;7.37;100.00;101106.69;5055102;28;20036;-79
2023/12/19 05:58:39;;;;;;;22.58;11.55;;;;;;;7.23;100.00;101093.75;5089278;28;20036;-78
2023/12/19 06:01:04;;;;;;;24.05;12.95;;;;;;;7.28;100.00;101088.88;5070243;28;20023;-79
2023/12/19 06:03:30;;;;;;;25.07;13.03;;;;;;;7.34;100.00;101083.88;5087311;28;20036;-79
2023/12/19 06:05:55;;;;;;;24.63;12.63;;;;;;;7.36;100.00;101065.16;5087452;28;20364;-79
2023/12/19 06:08:22;;;;;;;26.67;13.37;;;;;;;7.31;100.00;101067.41;5070751;28;20035;-79
2023/12/19 06:10:47;;;;;;;22.92;12.70;;;;;;;7.44;100.00;101067.97;5070482;28;20121;-79
2023/12/19 06:13:13;;;;;;;26.37;13.87;;;;;;;7.30;100.00;101078.97;5062147;28;20097;-80
2023/12/19 06:15:39;;;;;;;26.40;14.25;;;;;;;7.39;100.00;101072.88;5070350;28;20389;-79
2023/12/19 06:18:04;;;;;;;28.27;13.67;;;;;;;7.37;100.00;101061.53;5062159;28;20032;-79
2023/12/19 06:20:29;;;;;;;25.63;13.17;;;;;;;7.37;100.00;101067.69;5053362;28;20029;-79
2023/12/19 06:22:55;;;;;;;26.10;13.13;;;;;;;7.42;100.00;101080.56;5057207;28;20036;-79
2023/12/19 06:25:21;;;;;;;31.30;13.93;;;;;;;7.29;100.00;101083.44;5067857;28;20383;-79
2023/12/19 06:27:46;;;;;;;26.98;13.35;;;;;;;7.35;100.00;101074.97;5050072;28;20085;-79
2023/12/19 06:30:12;;;;;;;28.30;14.37;;;;;;;7.21;100.00;101090.38;5063712;28;20032;-79
2023/12/19 06:32:40;;;;;;;29.52;14.77;;;;;;;7.30;100.00;101092.25;5061839;28;20127;-79
2023/12/19 06:35:07;;;;;;;28.30;14.00;;;;;;;7.29;100.00;101103.88;5059787;28;20176;-79
2023/12/19 06:37:34;;;;;;;31.85;14.90;;;;;;;7.26;100.00;101093.47;5086945;28;20085;-80
2023/12/19 06:39:59;;;;;;;27.42;13.57;;;;;;;7.24;100.00;101082.19;5069960;28;20036;-79
2023/12/19 06:42:25;;;;;;;32.35;14.02;;;;;;;7.33;100.00;101081.38;5069101;28;20040;-78
2023/12/19 06:44:50;;;;;;;24.98;14.15;;;;;;;7.34;100.00;101075.09;5059940;28;20075;-78
2023/12/19 06:47:16;;;;;;;26.23;13.80;;;;;;;7.15;100.00;101070.53;5082395;28;20479;-80
2023/12/19 06:49:43;;;;;;;25.73;14.33;;;;;;;7.36;100.00;101094.38;5086695;28;20035;-80
2023/12/19 06:52:09;;;;;;;26.17;12.98;;;;;;;7.31;100.00;101096.59;5063620;28;20382;-79
2023/12/19 06:54:38;;;;;;;26.17;12.07;;;;;;;7.23;100.00;101085.78;5067968;28;20036;-79
2023/12/19 06:57:04;;;;;;;24.40;11.80;;;;;;;7.28;100.00;101089.75;5069782;28;20032;-79
2023/12/19 06:59:32;;;;;;;23.85;11.82;;;;;;;7.30;100.00;101086.94;5062632;28;20090;-80
2023/12/19 07:01:57;;;;;;;26.17;12.77;;;;;;;7.33;100.00;101094.66;5065940;28;20040;-79
2023/12/19 07:04:23;;;;;;;24.58;12.63;;;;;;;7.39;100.00;101079.00;5086686;28;20066;-80
2023/12/19 07:06:48;;;;;;;23.03;12.83;;;;;;;7.36;100.00;101070.47;5086897;28;20093;-78
2023/12/19 07:09:14;;;;;;;21.07;11.47;;;;;;;7.29;100.00;101079.97;5086788;28;20036;-78
2023/12/19 07:11:41;;;;;;;23.08;11.38;;;;;;;7.34;100.00;101083.88;5086577;28;20040;-79
2023/12/19 07:14:06;;;;;;;23.02;12.23;;;;;;;7.45;100.00;101090.94;5077956;28;20041;-79
2023/12/19 07:16:32;;;;;;;22.35;10.48;;;;;;;7.44;100.00;101099.03;5090136;28;20026;-80
2023/12/19 07:18:57;;;;;;;24.63;11.37;;;;;;;7.27;100.00;101089.88;5089799;28;20082;-79
2023/12/19 07:21:24;;;;;;;20.90;10.13;;;;;;;7.44;100.00;101083.91;5073323;28;20278;-79
2023/12/19 07:23:53;;;;;;;17.33;8.98;;;;;;;7.49;100.00;101081.72;5089586;28;20043;-79
2023/12/19 07:26:23;;;;;;;21.00;9.23;;;;;;;7.39;100.00;101092.28;5071650;28;20020;-79
2023/12/19 07:28:50;;;;;;;18.40;8.85;;;;;;;7.33;100.00;101081.38;5069991;28;20441;-80
2023/12/19 07:31:23;;;;;;;16.38;8.65;;;;;;;7.26;100.00;101064.28;5087285;28;20059;-79
2023/12/19 07:34:06;;;;;;;16.55;7.88;;;;;;;7.38;100.00;101069.38;5087368;28;20169;-79
2023/12/19 07:36:35;;;;;;;17.33;7.80;;;;;;;7.39;100.00;101065.72;5061168;28;20561;-79
2023/12/19 07:39:01;;;;;;;16.35;8.40;;;;;;;7.27;100.00;101060.66;5054453;28;20036;-80
2023/12/19 07:41:27;;;;;;;19.00;7.90;;;;;;;7.51;100.00;101071.78;5080401;28;20044;-81
2023/12/19 07:43:56;;;;;;;13.87;7.57;;;;;;;7.39;100.00;101059.56;5089420;28;20039;-79
2023/12/19 07:46:23;;;;;;;13.07;7.00;;;;;;;7.33;100.00;101057.47;5061677;28;20132;-79
2023/12/19 07:48:49;;;;;;;12.82;6.35;;;;;;;7.33;100.00;101052.16;5064844;28;20170;-80
2023/12/19 07:51:16;;;;;;;13.07;7.20;;;;;;;7.34;100.00;101040.56;5073087;28;20072;-81
2023/12/19 07:53:41;;;;;;;13.75;8.10;;;;;;;7.42;100.00;101053.16;5053070;28;20519;-79
2023/12/19 07:56:07;;;;;;;13.23;7.00;;;;;;;7.36;100.00;101044.75;5078178;28;20031;-79
2023/12/19 07:58:32;;;;;;;14.07;7.97;;;;;;;7.38;100.00;101052.59;5086164;28;20290;-79
2023/12/19 08:00:58;;;;;;;16.88;8.45;;;;;;;7.42;100.00;101059.31;5080729;28;20043;-79
2023/12/19 08:03:30;;;;;;;13.85;8.27;;;;;;;7.34;100.00;101052.00;5061950;28;20036;-79
2023/12/19 08:05:56;;;;;;;12.88;7.97;;;;;;;7.29;100.00;101048.09;5083304;28;20055;-78
2023/12/19 08:08:25;;;;;;;16.02;8.77;;;;;;;7.28;100.00;101059.66;5087039;28;20470;-79
2023/12/19 08:10:51;;;;;;;15.48;8.30;;;;;;;7.36;100.00;101062.50;5059260;28;20063;-78
2023/12/19 08:13:19;;;;;;;;;;;;;;;7.28;100.00;101051.69;5087981;28;20051;-82
2023/12/19 08:15:47;;;;;;;21.33;9.52;;;;;;;7.20;100.00;101044.41;5067966;28;19917;-79
2023/12/19 08:18:31;;;;;;;13.40;7.18;;;;;;;7.29;100.00;101048.94;5086627;28;20093;-79
2023/12/19 08:21:15;;;;;;;13.80;6.95;;;;;;;7.28;100.00;101041.06;5077523;28;20137;-79
2023/12/19 08:23:42;;;;;;;18.23;9.63;;;;;;;7.26;100.00;101032.41;5064043;28;20036;-79
2023/12/19 08:26:09;;;;;;;15.02;7.82;;;;;;;7.17;100.00;101024.28;5087513;28;20281;-80
2023/12/19 08:28:34;;;;;;;19.02;9.80;;;;;;;7.11;100.00;101019.50;5057919;28;20401;-79
2023/12/19 08:31:00;;;;;;;15.40;7.80;;;;;;;7.04;100.00;101018.34;5067568;28;20127;-79
2023/12/19 08:33:25;;;;;;;15.17;7.60;;;;;;;7.22;100.00;101023.88;5063601;28;20064;-79
2023/12/19 08:35:50;;;;;;;18.60;7.93;;;;;;;7.15;100.00;101017.41;5063847;28;20035;-79
2023/12/19 08:38:16;;;;;;;15.10;7.27;;;;;;;7.28;100.00;101019.84;5082875;28;20040;-79
2023/12/19 08:40:41;;;;;;;13.60;7.17;;;;;;;7.22;100.00;101012.41;5063685;28;20077;-79
2023/12/19 08:43:06;;;;;;;14.17;7.00;;;;;;;7.23;100.00;101004.31;5068589;28;20033;-79
2023/12/19 08:45:32;;;;;;;12.27;6.80;;;;;;;7.28;100.00;101004.75;5076465;28;20406;-79
2023/12/19 08:47:57;;;;;;;13.13;5.97;;;;;;;7.23;100.00;100995.50;5068316;28;20170;-79
2023/12/19 08:50:23;;;;;;;13.43;6.57;;;;;;;7.24;100.00;100998.03;5058016;28;20071;-81
2023/12/19 08:52:49;;;;;;;12.25;6.38;;;;;;;7.32;100.00;100984.06;5064053;28;20282;-79
2023/12/19 08:55:14;;;;;;;9.30;5.30;;;;;;;7.26;100.00;100984.59;5070751;28;20036;-79
2023/12/19 08:57:40;;;;;;;9.90;5.87;;;;;;;7.27;100.00;100986.28;5070667;28;20448;-79
2023/12/19 09:00:08;;;;;;;11.10;5.72;;;;;;;7.27;100.00;100978.31;5070496;28;20833;-79
2023/12/19 09:02:33;;;;;;;13.70;6.03;;;;;;;7.29;100.00;100990.50;5084682;28;20640;-81
2023/12/19 09:04:58;;;;;;;8.83;4.97;;;;;;;7.31;100.00;100982.41;5069667;28;20055;-79
2023/12/19 09:07:24;;;;;;;9.63;5.53;;;;;;;7.16;100.00;100979.25;5075696;28;20503;-78
2023/12/19 09:09:51;;;;;;;7.70;4.97;;;;;;;7.23;100.00;100979.56;5082910;28;20090;-78
2023/12/19 09:12:17;;;;;;;11.23;5.13;;;;;;;7.29;100.00;100987.00;5085350;28;20282;-80
2023/12/19 09:14:42;;;;;;;8.20;5.15;;;;;;;7.24;100.00;100971.47;5068446;28;20028;-79
2023/12/19 09:17:07;;;;;;;7.37;4.57;;;;;;;7.30;100.00;100970.09;5072790;28;20078;-81
2023/12/19 09:19:34;;;;;;;6.30;4.07;;;;;;;7.33;100.00;100977.78;5065933;28;20282;-80
2023/12/19 09:22:00;;;;;;;6.50;3.85;;;;;;;7.28;100.00;100967.59;5070572;28;20680;-81
2023/12/19 09:24:30;;;;;;;7.05;3.88;;;;;;;7.12;100.00;100968.09;5079729;28;20040;-81
2023/12/19 09:26:58;;;;;;;6.53;3.55;;;;;;;7.09;100.00;100968.34;5069748;28;20040;-81
2023/12/19 09:29:26;;;;;;;5.85;3.47;;;;;;;7.05;100.00;100958.16;5054630;28;20056;-79
2023/12/19 09:31:51;;;;;;;6.78;3.42;;;;;;;7.13;100.00;100967.09;5060270;28;20066;-79
2023/12/19 09:34:17;;;;;;;6.15;3.53;;;;;;;7.12;100.00;100964.59;5066717;28;20118;-80
2023/12/19 09:36:42;;;;;;;6.00;3.60;;;;;;;7.10;100.00;100962.06;5061537;28;20048;-81
2023/12/19 09:39:07;;;;;;;6.47;4.17;;;;;;;7.17;100.00;100959.72;5082353;28;20240;-80
2023/12/19 09:41:33;;;;;;;5.93;3.87;;;;;;;7.21;100.00;100954.97;5066751;28;20039;-79
2023/12/19 09:43:58;;;;;;;7.60;3.80;;;;;;;6.99;100.00;100956.84;5074733;28;20036;-79
2023/12/19 09:46:24;;;;;;;5.53;3.20;;;;;;;6.89;100.00;100950.66;5077490;28;20937;-79
2023/12/19 09:48:50;;;;;;;5.90;3.63;;;;;;;7.03;100.00;100955.63;5075849;28;20114;-80
2023/12/19 09:51:26;;;;;;;6.28;3.78;;;;;;;7.10;100.00;100962.06;5064362;28;20052;-80
2023/12/19 09:53:54;;;;;;;6.35;3.25;;;;;;;7.06;100.00;100947.38;5078714;28;20038;-80
2023/12/19 09:56:22;;;;;;;4.03;3.20;;;;;;;7.06;100.00;100926.13;5082997;28;20053;-80
2023/12/19 09:58:49;;;;;;;6.00;3.65;;;;;;;7.15;100.00;100935.09;5078642;28;20039;-80
2023/12/19 10:01:17;;;;;;;4.70;2.72;;;;;;;7.03;100.00;100934.38;5056439;28;20032;-78
2023/12/19 10:03:43;;;;;;;4.20;2.83;;;;;;;7.01;100.00;100920.38;5076409;28;20044;-80
2023/12/19 10:06:09;;;;;;;5.63;2.85;;;;;;;6.92;100.00;100903.44;5074282;28;20739;-79
2023/12/19 10:08:35;;;;;;;7.72;3.42;;;;;;;7.03;100.00;100918.44;5075000;28;20123;-80
2023/12/19 10:11:03;;;;;;;3.88;2.03;;;;;;;6.90;100.00;100902.75;5056244;28;20048;-79
2023/12/19 10:13:30;;;;;;;4.90;2.80;;;;;;;7.00;100.00;100908.09;5056986;28;20042;-80
2023/12/19 10:16:00;;;;;;;5.78;3.50;;;;;;;7.01;100.00;100893.84;5056121;28;20033;-80
2023/12/19 10:18:25;;;;;;;3.83;2.35;;;;;;;7.10;100.00;100885.06;5075621;28;20471;-80
2023/12/19 10:21:02;;;;;;;4.60;3.00;;;;;;;7.16;100.00;100867.72;5063649;28;20032;-79
2023/12/19 10:23:27;;;;;;;4.18;2.50;;;;;;;6.98;100.00;100860.44;5084029;28;20218;-79
2023/12/19 10:25:53;;;;;;;3.27;2.53;;;;;;;7.21;100.00;100878.81;5071262;28;20104;-80
2023/12/19 10:28:18;;;;;;;5.23;2.83;;;;;;;7.06;100.00;100873.03;5091284;28;20063;-79
2023/12/19 10:30:43;;;;;;;3.57;2.40;;;;;;;7.20;100.00;100879.78;5075975;28;20044;-79
2023/12/19 10:33:09;;;;;;;4.63;3.43;;;;;;;7.10;100.00;100879.75;5088545;28;20034;-79
2023/12/19 10:35:35;;;;;;;3.37;2.40;;;;;;;7.14;100.00;100867.91;5064926;28;20513;-79
2023/12/19 10:38:01;;;;;;;3.63;2.40;;;;;;;7.16;100.00;100873.91;5086133;28;20297;-80
2023/12/19 10:40:26;;;;;;;3.60;2.60;;;;;;;7.21;100.00;100862.00;5068012;28;20040;-81
2023/12/19 10:42:56;;;;;;;4.43;2.50;;;;;;;7.20;100.00;100866.50;5079294;28;20085;-80
2023/12/19 10:45:23;;;;;;;4.55;2.78;;;;;;;7.18;100.00;100860.47;5076924;28;20033;-81
2023/12/19 10:47:48;;;;;;;5.07;2.97;;;;;;;7.18;100.00;100856.00;5080576;28;20028;-80
2023/12/19 10:50:13;;;;;;;4.72;3.08;;;;;;;7.09;100.00;100850.69;5073712;28;20515;-80
2023/12/19 10:52:40;;;;;;;5.30;3.25;;;;;;;7.17;100.00;100859.66;5080165;28;20043;-79
2023/12/19 10:55:11;;;;;;;4.95;3.15;;;;;;;7.10;100.00;100839.94;5070109;28;20032;-80
2023/12/19 10:57:37;;;;;;;4.88;2.95;;;;;;;7.17;100.00;100843.72;5083716;28;20050;-80
2023/12/19 11:00:13;;;;;;;5.43;3.38;;;;;;;7.24;100.00;100846.66;5083932;28;20028;-79
2023/12/19 11:02:56;;;;;;;4.97;3.53;;;;;;;7.24;100.00;100833.38;5054380;28;20561;-79
2023/12/19 11:05:36;;;;;;;5.00;3.35;;;;;;;7.15;100.00;100826.25;5067069;28;20032;-79
2023/12/19 11:08:04;;;;;;;5.50;4.00;;;;;;;7.04;100.00;100811.25;5077371;28;20118;-78
2023/12/19 11:10:34;;;;;;;4.80;3.30;;;;;;;7.06;100.00;100814.63;5075890;28;20040;-79